createdAt,value
2016-08-29T00:04:47.681Z,"  -67"
2016-08-29T00:09:44.819Z,"  -68"
2016-08-29T00:14:41.131Z,"  -69"
2016-08-29T00:19:37.794Z,"  -67"
2016-08-29T00:24:34.505Z,"  -67"
2016-08-29T00:29:31.214Z,"  -70"
2016-08-29T00:34:27.909Z,"  -72"
2016-08-29T00:39:24.763Z,"  -67"
2016-08-29T00:44:21.417Z,"  -73"
2016-08-29T00:49:18.244Z,"  -69"
2016-08-29T00:54:14.891Z,"  -71"
2016-08-29T00:59:11.736Z,"  -72"
2016-08-29T01:04:08.452Z,"  -70"
2016-08-29T01:09:05.310Z,"  -70"
2016-08-29T01:14:02.677Z,"  -71"
2016-08-29T01:18:59.228Z,"  -68"
2016-08-29T01:23:55.985Z,"  -77"
2016-08-29T01:28:52.734Z,"  -69"
2016-08-29T01:33:49.740Z,"  -67"
2016-08-29T01:38:46.420Z,"  -69"
2016-08-29T01:43:43.124Z,"  -68"
2016-08-29T01:48:40.179Z,"  -69"
2016-08-29T01:53:37.032Z,"  -66"
2016-08-29T01:58:33.615Z,"  -67"
2016-08-29T02:03:30.215Z,"  -69"
2016-08-29T02:08:26.997Z,"  -75"
2016-08-29T02:13:26.133Z,"  -67"
2016-08-29T02:18:22.223Z,"  -67"
2016-08-29T02:23:18.781Z,"  -78"
2016-08-29T02:28:17.843Z,"  -77"
2016-08-29T02:33:13.934Z,"  -80"
2016-08-29T02:38:10.652Z,"  -78"
2016-08-29T02:43:07.223Z,"  -68"
2016-08-29T02:48:04.094Z,"  -69"
2016-08-29T02:53:01.119Z,"  -70"
2016-08-29T02:57:57.664Z,"  -69"
2016-08-29T03:02:54.368Z,"  -67"
2016-08-29T03:07:51.548Z,"  -69"
2016-08-29T03:12:48.550Z,"  -68"
2016-08-29T03:17:45.314Z,"  -69"
2016-08-29T03:22:42.096Z,"  -67"
2016-08-29T03:27:38.711Z,"  -67"
2016-08-29T03:32:35.377Z,"  -69"
2016-08-29T03:37:31.990Z,"  -70"
2016-08-29T03:42:28.728Z,"  -67"
2016-08-29T03:47:25.477Z,"  -69"
2016-08-29T03:52:23.026Z,"  -74"
2016-08-29T03:57:19.239Z,"  -71"
2016-08-29T04:02:15.685Z,"  -68"
2016-08-29T04:07:14.715Z,"  -69"
2016-08-29T04:12:10.762Z,"  -71"
2016-08-29T04:17:08.101Z,"  -67"
2016-08-29T04:22:04.910Z,"  -67"
2016-08-29T04:27:01.483Z,"  -67"
2016-08-29T04:31:58.112Z,"  -67"
2016-08-29T04:36:54.876Z,"  -73"
2016-08-29T04:41:51.567Z,"  -71"
2016-08-29T04:46:48.194Z,"  -75"
2016-08-29T04:51:44.724Z,"  -72"
2016-08-29T04:56:41.394Z,"  -69"
2016-08-29T05:01:37.902Z,"  -66"
2016-08-29T05:06:34.411Z,"  -73"
2016-08-29T05:11:31.208Z,"  -68"
2016-08-29T05:16:27.715Z,"  -67"
2016-08-29T05:21:24.239Z,"  -67"
2016-08-29T05:26:21.054Z,"  -66"
2016-08-29T05:31:17.828Z,"  -67"
2016-08-29T05:36:14.441Z,"  -74"
2016-08-29T05:41:11.108Z,"  -68"
2016-08-29T05:46:07.755Z,"  -71"
2016-08-29T05:51:04.439Z,"  -66"
2016-08-29T05:56:00.858Z,"  -70"
2016-08-29T06:00:57.603Z,"  -68"
2016-08-29T06:05:54.003Z,"  -66"
2016-08-29T06:10:50.525Z,"  -69"
2016-08-29T06:15:47.110Z,"  -66"
2016-08-29T06:20:43.760Z,"  -67"
2016-08-29T06:25:41.801Z,"  -66"
2016-08-29T06:30:38.137Z,"  -67"
2016-08-29T06:35:35.418Z,"  -67"
2016-08-29T06:40:32.237Z,"  -67"
2016-08-29T06:45:29.485Z,"  -69"
2016-08-29T06:50:26.216Z,"  -68"
2016-08-29T06:55:25.374Z,"  -68"
2016-08-29T07:00:21.515Z,"  -67"
2016-08-29T07:05:18.216Z,"  -66"
2016-08-29T07:10:14.941Z,"  -67"
2016-08-29T07:15:11.644Z,"  -66"
2016-08-29T07:20:08.284Z,"  -66"
2016-08-29T07:25:04.976Z,"  -69"
2016-08-29T07:30:01.529Z,"  -69"
2016-08-29T07:34:58.664Z,"  -70"
2016-08-29T07:39:55.305Z,"  -68"
2016-08-29T07:44:52.071Z,"  -68"
2016-08-29T07:49:48.795Z,"  -69"
2016-08-29T07:54:45.894Z,"  -70"
2016-08-29T07:59:42.594Z,"  -69"
2016-08-29T08:04:39.145Z,"  -67"
2016-08-29T08:09:35.583Z,"  -69"
2016-08-29T08:14:32.354Z,"  -67"
2016-08-29T08:19:29.039Z,"  -67"
2016-08-29T08:24:25.727Z,"  -66"
2016-08-29T08:29:23.092Z,"  -68"
2016-08-29T08:34:19.628Z,"  -69"
2016-08-29T08:39:16.760Z,"  -67"
2016-08-29T08:44:13.810Z,"  -68"
2016-08-29T08:49:10.232Z,"  -69"
2016-08-29T08:54:07.800Z,"  -67"
2016-08-29T08:59:04.404Z,"  -68"
2016-08-29T09:04:00.364Z,"  -67"
2016-08-29T09:08:56.810Z,"  -68"
2016-08-29T09:13:53.258Z,"  -68"
2016-08-29T09:18:51.547Z,"  -70"
2016-08-29T09:23:47.804Z,"  -67"
2016-08-29T09:28:44.536Z,"  -69"
2016-08-29T09:33:41.212Z,"  -70"
2016-08-29T09:38:38.058Z,"  -76"
2016-08-29T09:43:34.718Z,"  -74"
2016-08-29T09:48:31.546Z,"  -73"
2016-08-29T09:53:28.583Z,"  -75"
2016-08-29T09:58:25.449Z,"  -75"
2016-08-29T10:03:22.106Z,"  -75"
2016-08-29T10:08:18.697Z,"  -75"
2016-08-29T10:13:15.472Z,"  -76"
2016-08-29T10:18:12.550Z,"  -76"
2016-08-29T10:23:09.336Z,"  -73"
2016-08-29T10:28:05.779Z,"  -75"
2016-08-29T10:33:02.553Z,"  -75"
2016-08-29T10:37:59.311Z,"  -70"
2016-08-29T10:42:55.926Z,"  -70"
2016-08-29T10:47:53.468Z,"  -76"
2016-08-29T10:52:49.836Z,"  -75"
2016-08-29T10:57:46.527Z,"  -72"
2016-08-29T11:02:43.192Z,"  -73"
2016-08-29T11:07:40.974Z,"  -70"
2016-08-29T11:12:37.566Z,"  -73"
2016-08-29T11:17:35.174Z,"  -72"
2016-08-29T11:22:31.561Z,"  -75"
2016-08-29T11:27:28.245Z,"  -75"
2016-08-29T11:32:25.012Z,"  -75"
2016-08-29T11:37:22.111Z,"  -74"
2016-08-29T11:42:18.898Z,"  -73"
2016-08-29T11:47:17.005Z,"  -74"
2016-08-29T11:52:13.439Z,"  -75"
2016-08-29T11:57:10.120Z,"  -74"
2016-08-29T12:02:07.007Z,"  -74"
2016-08-29T12:07:04.126Z,"  -74"
2016-08-29T12:12:00.745Z,"  -75"
2016-08-29T12:16:57.853Z,"  -74"
2016-08-29T12:21:54.627Z,"  -75"
2016-08-29T12:26:51.372Z,"  -77"
2016-08-29T12:31:47.986Z,"  -76"
2016-08-29T12:36:44.658Z,"  -73"
2016-08-29T12:41:41.020Z,"  -74"
2016-08-29T12:46:37.710Z,"  -80"
2016-08-29T12:51:34.387Z,"  -71"
2016-08-29T12:56:31.073Z,"  -77"
2016-08-29T13:01:27.768Z,"  -67"
2016-08-29T13:06:24.419Z,"  -68"
2016-08-29T13:11:21.010Z,"  -67"
2016-08-29T13:16:17.722Z,"  -68"
2016-08-29T13:21:14.476Z,"  -67"
2016-08-29T13:26:11.555Z,"  -71"
2016-08-29T13:31:08.234Z,"  -70"
2016-08-29T13:36:04.926Z,"  -68"
2016-08-29T13:41:02.032Z,"  -75"
2016-08-29T13:45:59.192Z,"  -74"
2016-08-29T13:50:55.588Z,"  -72"
2016-08-29T13:55:52.198Z,"  -68"
2016-08-29T14:00:48.794Z,"  -68"
2016-08-29T14:05:45.703Z,"  -67"
2016-08-29T14:10:42.704Z,"  -68"
2016-08-29T14:15:39.653Z,"  -68"
2016-08-29T14:20:36.428Z,"  -76"
2016-08-29T14:25:33.023Z,"  -77"
2016-08-29T14:30:30.153Z,"  -68"
2016-08-29T14:35:26.878Z,"  -73"
2016-08-29T14:40:24.749Z,"  -77"
2016-08-29T14:45:20.890Z,"  -72"
2016-08-29T14:50:18.792Z,"  -73"
2016-08-29T14:55:15.371Z,"  -70"
2016-08-29T15:00:12.144Z,"  -70"
2016-08-29T15:05:08.670Z,"  -74"
2016-08-29T15:10:05.369Z,"  -73"
2016-08-29T15:15:04.310Z,"  -69"
2016-08-29T15:20:00.602Z,"  -80"
2016-08-29T15:25:02.382Z,"  -79"
2016-08-29T15:29:58.188Z,"  -79"
2016-08-29T15:34:54.803Z,"  -72"
2016-08-29T15:39:51.461Z,"  -72"
2016-08-29T15:44:48.348Z,"  -79"
2016-08-29T15:49:47.627Z,"  -79"
2016-08-29T15:54:43.562Z,"  -69"
2016-08-29T15:59:41.657Z,"  -80"
2016-08-29T16:04:37.892Z,"  -72"
2016-08-29T16:09:34.459Z,"  -72"
2016-08-29T16:14:31.151Z,"  -72"
2016-08-29T16:19:28.084Z,"  -69"
2016-08-29T16:24:24.732Z,"  -68"
2016-08-29T16:29:21.661Z,"  -78"
2016-08-29T16:34:18.341Z,"  -70"
2016-08-29T16:39:14.906Z,"  -68"
2016-08-29T16:44:11.503Z,"  -68"
2016-08-29T16:49:08.130Z,"  -71"
2016-08-29T16:54:04.906Z,"  -77"
2016-08-29T16:59:01.657Z,"  -68"
2016-08-29T17:03:58.388Z,"  -76"
2016-08-29T17:08:55.537Z,"  -73"
2016-08-29T17:13:52.085Z,"  -75"
2016-08-29T17:18:48.652Z,"  -79"
2016-08-29T17:23:45.425Z,"  -78"
2016-08-29T17:28:42.091Z,"  -81"
2016-08-29T17:33:38.666Z,"  -80"
2016-08-29T17:38:34.963Z,"  -79"
2016-08-29T17:43:32.081Z,"  -74"
2016-08-29T17:48:28.515Z,"  -79"
2016-08-29T17:53:25.193Z,"  -80"
2016-08-29T17:58:21.801Z,"  -73"
2016-08-29T18:03:18.628Z,"  -79"
2016-08-29T18:08:15.236Z,"  -79"
2016-08-29T18:13:12.061Z,"  -78"
2016-08-29T18:18:08.679Z,"  -78"
2016-08-29T18:23:05.252Z,"  -78"
2016-08-29T18:28:02.160Z,"  -78"
2016-08-29T18:32:58.599Z,"  -78"
2016-08-29T18:37:55.173Z,"  -68"
2016-08-29T18:42:51.733Z,"  -77"
2016-08-29T18:47:48.326Z,"  -77"
2016-08-29T18:52:45.108Z,"  -74"
2016-08-29T18:57:41.757Z,"  -78"
2016-08-29T19:02:41.118Z,"  -78"
2016-08-29T19:07:42.580Z,"  -76"
2016-08-29T19:12:38.324Z,"  -77"
2016-08-29T19:17:37.221Z,"  -77"
2016-08-29T19:22:33.292Z,"  -73"
2016-08-29T19:27:29.982Z,"  -67"
2016-08-29T19:32:26.541Z,"  -77"
2016-08-29T19:37:23.121Z,"  -76"
2016-08-29T19:42:19.704Z,"  -78"
2016-08-29T19:47:16.247Z,"  -77"
2016-08-29T19:52:12.907Z,"  -76"
2016-08-29T19:57:09.558Z,"  -77"
2016-08-29T20:02:07.911Z,"  -77"
2016-08-29T20:07:04.305Z,"  -77"
2016-08-29T20:12:00.938Z,"  -76"
2016-08-29T20:16:57.669Z,"  -76"
2016-08-29T20:21:54.644Z,"  -67"
2016-08-29T20:26:51.624Z,"  -65"
2016-08-29T20:31:48.363Z,"  -68"
2016-08-29T20:36:45.371Z,"  -68"
2016-08-29T20:41:42.017Z,"  -68"
2016-08-29T20:46:38.567Z,"  -67"
2016-08-29T20:51:35.288Z,"  -68"
2016-08-29T20:56:32.624Z,"  -71"
2016-08-29T21:01:29.064Z,"  -67"
2016-08-29T21:06:26.721Z,"  -68"
2016-08-29T21:11:23.451Z,"  -67"
2016-08-29T21:16:20.166Z,"  -71"
2016-08-29T21:21:16.825Z,"  -71"
2016-08-29T21:26:13.254Z,"  -72"
2016-08-29T21:31:10.281Z,"  -73"
2016-08-29T21:36:06.971Z,"  -73"
2016-08-29T21:41:03.538Z,"  -75"
2016-08-29T21:46:00.193Z,"  -72"
2016-08-29T21:50:56.910Z,"  -75"
2016-08-29T21:55:53.348Z,"  -72"
2016-08-29T22:00:50.069Z,"  -73"
2016-08-29T22:05:47.033Z,"  -76"
2016-08-29T22:10:43.574Z,"  -77"
2016-08-29T22:15:40.476Z,"  -73"
2016-08-29T22:20:38.288Z,"  -78"
2016-08-29T22:25:34.707Z,"  -78"
2016-08-29T22:30:31.366Z,"  -79"
2016-08-29T22:35:28.019Z,"  -79"
2016-08-29T22:40:24.427Z,"  -80"
2016-08-29T22:45:22.075Z,"  -79"
2016-08-29T22:50:18.517Z,"  -79"
2016-08-29T22:55:14.959Z,"  -79"
2016-08-29T23:00:11.474Z,"  -79"
2016-08-29T23:05:08.706Z,"  -79"
2016-08-29T23:10:05.129Z,"  -78"
2016-08-29T23:15:03.280Z,"  -78"
2016-08-29T23:19:59.777Z,"  -79"
2016-08-29T23:24:56.866Z,"  -78"
2016-08-29T23:29:53.553Z,"  -79"
2016-08-29T23:34:50.008Z,"  -80"
2016-08-29T23:39:46.590Z,"  -80"
2016-08-29T23:44:43.550Z,"  -79"
2016-08-29T23:49:40.697Z,"  -77"
2016-08-29T23:54:37.172Z,"  -79"
2016-08-29T23:59:34.209Z,"  -78"
